createdAt,value
2022-12-22T00:01:56.567Z,81.03
2022-12-22T00:04:42.631Z,81.18
2022-12-22T00:07:28.590Z,81.59
2022-12-22T00:10:14.091Z,81.68
2022-12-22T00:12:59.650Z,81.57
2022-12-22T00:15:49.937Z,81.70
2022-12-22T00:18:36.176Z,81.57
2022-12-22T00:21:21.865Z,81.78
2022-12-22T00:24:07.482Z,81.30
2022-12-22T00:26:54.207Z,81.49
2022-12-22T00:29:40.311Z,81.87
2022-12-22T00:32:32.743Z,82.14
2022-12-22T00:35:19.663Z,82.03
2022-12-22T00:38:05.413Z,81.86
2022-12-22T00:40:51.211Z,81.66
2022-12-22T00:43:37.361Z,81.79
2022-12-22T00:46:23.416Z,82.29
2022-12-22T00:49:09.754Z,82.37
2022-12-22T00:51:55.303Z,82.40
2022-12-22T00:54:41.553Z,82.42
2022-12-22T00:57:37.956Z,82.14
2022-12-22T01:00:25.008Z,82.22
2022-12-22T01:03:10.630Z,82.10
2022-12-22T01:05:56.648Z,82.07
2022-12-22T01:08:42.380Z,82.08
2022-12-22T01:11:28.172Z,82.15
2022-12-22T01:14:13.861Z,82.03
2022-12-22T01:16:59.398Z,82.10
2022-12-22T01:19:45.010Z,81.94
2022-12-22T01:22:40.525Z,82.08
2022-12-22T01:25:35.262Z,82.38
2022-12-22T01:28:21.184Z,82.27
2022-12-22T01:31:06.651Z,82.24
2022-12-22T01:33:52.535Z,82.01
2022-12-22T01:36:38.152Z,82.29
2022-12-22T01:39:23.984Z,82.07
2022-12-22T01:42:09.630Z,82.03
2022-12-22T01:44:55.071Z,82.24
2022-12-22T01:47:46.668Z,82.83
2022-12-22T01:50:39.670Z,82.90
2022-12-22T01:53:30.771Z,82.99
2022-12-22T01:56:17.971Z,83.21
2022-12-22T01:59:09.691Z,83.48
2022-12-22T02:01:55.167Z,83.45
2022-12-22T02:04:44.643Z,83.35
2022-12-22T02:07:59.613Z,83.11
2022-12-22T02:11:03.767Z,83.11
2022-12-22T02:14:06.938Z,82.72
2022-12-22T02:17:02.781Z,82.79
2022-12-22T02:20:01.030Z,82.78
2022-12-22T02:23:08.352Z,82.36
2022-12-22T02:26:08.254Z,82.40
2022-12-22T02:28:54.313Z,82.71
2022-12-22T02:31:39.945Z,82.88
2022-12-22T02:34:32.500Z,82.87
2022-12-22T02:37:28.257Z,83.22
2022-12-22T02:40:34.426Z,82.88
2022-12-22T02:43:38.093Z,83.11
2022-12-22T02:47:17.816Z,83.03
2022-12-22T02:50:18.773Z,83.12
2022-12-22T02:53:06.528Z,82.95
2022-12-22T02:55:53.097Z,82.91
2022-12-22T02:58:38.988Z,82.64
2022-12-22T03:01:25.282Z,82.42
2022-12-22T03:04:10.849Z,82.82
2022-12-22T03:06:58.021Z,82.87
2022-12-22T03:09:43.523Z,82.79
2022-12-22T03:12:28.894Z,83.00
2022-12-22T03:15:14.424Z,82.93
2022-12-22T03:18:00.420Z,82.96
2022-12-22T03:20:46.117Z,83.08
2022-12-22T03:23:31.620Z,83.44
2022-12-22T03:25:58.613Z,83.14
2022-12-22T03:28:28.349Z,83.41
2022-12-22T03:31:02.045Z,83.29
2022-12-22T03:33:29.856Z,83.40
2022-12-22T03:35:57.459Z,82.92
2022-12-22T03:38:25.519Z,83.27
2022-12-22T03:40:52.770Z,83.09
2022-12-22T03:43:38.204Z,82.83
2022-12-22T03:46:17.938Z,83.08
2022-12-22T03:49:05.857Z,83.10
2022-12-22T03:51:33.787Z,83.03
2022-12-22T03:54:00.884Z,83.12
2022-12-22T03:56:28.264Z,83.04
2022-12-22T03:58:55.265Z,82.85
2022-12-22T04:01:22.696Z,83.11
2022-12-22T04:03:50.162Z,83.11
2022-12-22T04:06:18.572Z,83.21
2022-12-22T04:08:45.774Z,83.09
2022-12-22T04:11:32.832Z,82.81
2022-12-22T04:13:59.831Z,82.94
2022-12-22T04:16:26.865Z,83.05
2022-12-22T04:18:53.886Z,83.26
2022-12-22T04:21:20.899Z,82.95
2022-12-22T04:23:51.298Z,83.26
2022-12-22T04:26:23.751Z,83.32
2022-12-22T04:28:52.038Z,83.06
2022-12-22T04:31:19.821Z,83.15
2022-12-22T04:33:47.194Z,83.00
2022-12-22T04:36:14.912Z,82.83
2022-12-22T04:38:42.187Z,83.13
2022-12-22T04:41:09.519Z,82.96
2022-12-22T04:43:37.267Z,82.91
2022-12-22T04:46:04.963Z,83.09
2022-12-22T04:48:32.997Z,83.51
2022-12-22T04:51:01.103Z,82.97
2022-12-22T04:53:29.835Z,83.08
2022-12-22T04:56:00.490Z,83.20
2022-12-22T04:58:28.459Z,83.30
2022-12-22T05:00:56.079Z,83.21
2022-12-22T05:03:24.040Z,83.17
2022-12-22T05:05:51.713Z,83.13
2022-12-22T05:08:18.710Z,82.94
2022-12-22T05:10:45.649Z,82.96
2022-12-22T05:13:12.577Z,83.18
2022-12-22T05:15:39.541Z,83.22
2022-12-22T05:18:06.516Z,83.35
2022-12-22T05:20:36.093Z,83.60
2022-12-22T05:23:03.321Z,83.99
2022-12-22T05:25:34.938Z,83.89
2022-12-22T05:28:02.881Z,83.98
2022-12-22T05:30:29.953Z,84.10
2022-12-22T05:32:56.942Z,83.94
2022-12-22T05:35:23.842Z,83.80
2022-12-22T05:37:50.765Z,83.90
2022-12-22T05:40:17.776Z,83.89
2022-12-22T05:42:44.782Z,83.79
2022-12-22T05:45:18.095Z,84.10
2022-12-22T05:47:47.699Z,84.14
2022-12-22T05:50:16.438Z,84.05
2022-12-22T05:52:44.081Z,84.09
2022-12-22T05:55:12.272Z,84.00
2022-12-22T05:57:40.524Z,83.88
2022-12-22T06:00:13.238Z,83.74
2022-12-22T06:02:42.233Z,83.74
2022-12-22T06:05:10.950Z,83.95
2022-12-22T06:07:38.932Z,83.97
2022-12-22T06:10:11.928Z,83.66
2022-12-22T06:12:41.253Z,83.90
2022-12-22T06:15:11.446Z,83.45
2022-12-22T06:17:44.294Z,83.57
2022-12-22T06:20:14.102Z,83.55
2022-12-22T06:22:41.089Z,83.76
2022-12-22T06:25:12.071Z,83.76
2022-12-22T06:27:42.945Z,83.47
2022-12-22T06:30:10.248Z,83.89
2022-12-22T06:32:38.467Z,83.99
2022-12-22T06:35:06.601Z,83.67
2022-12-22T06:37:35.387Z,83.78
2022-12-22T06:40:02.586Z,83.89
2022-12-22T06:42:48.470Z,83.79
2022-12-22T06:45:24.104Z,83.98
2022-12-22T06:47:51.040Z,84.03
2022-12-22T06:50:18.075Z,83.53
2022-12-22T06:52:45.040Z,83.26
2022-12-22T06:55:11.988Z,83.28
2022-12-22T06:57:39.593Z,82.92
2022-12-22T07:00:07.037Z,82.84
2022-12-22T07:02:34.383Z,82.20
2022-12-22T07:05:01.511Z,82.30
2022-12-22T07:07:29.837Z,82.05
2022-12-22T07:09:56.781Z,82.10
2022-12-22T07:12:24.445Z,82.00
2022-12-22T07:14:51.384Z,81.95
2022-12-22T07:17:18.328Z,82.00
2022-12-22T07:19:45.308Z,81.81
2022-12-22T07:22:12.175Z,81.75
2022-12-22T07:24:39.206Z,81.57
2022-12-22T07:27:06.126Z,81.49
2022-12-22T07:29:33.207Z,81.37
2022-12-22T07:32:00.160Z,81.40
2022-12-22T07:34:27.457Z,81.01
2022-12-22T07:36:54.345Z,80.72
2022-12-22T07:39:21.511Z,80.46
2022-12-22T07:42:07.371Z,79.84
2022-12-22T07:44:34.767Z,80.02
2022-12-22T07:47:02.103Z,79.76
2022-12-22T07:49:47.850Z,79.76
2022-12-22T07:52:14.755Z,79.61
2022-12-22T07:54:42.441Z,79.18
2022-12-22T07:57:09.597Z,78.76
2022-12-22T07:59:36.455Z,78.66
2022-12-22T08:02:03.547Z,78.66
2022-12-22T08:04:30.688Z,78.47
2022-12-22T08:06:58.682Z,78.15
2022-12-22T08:09:25.589Z,77.71
2022-12-22T08:11:52.517Z,77.31
2022-12-22T08:14:19.474Z,77.14
2022-12-22T08:16:46.529Z,76.76
2022-12-22T08:19:13.569Z,76.41
2022-12-22T08:21:42.186Z,76.45
2022-12-22T08:24:11.335Z,76.35
2022-12-22T08:26:44.043Z,75.73
2022-12-22T08:29:14.230Z,75.76
2022-12-22T08:31:42.063Z,75.77
2022-12-22T08:34:12.717Z,75.09
2022-12-22T08:36:48.108Z,74.70
2022-12-22T08:39:16.765Z,74.53
2022-12-22T08:41:52.930Z,74.51
2022-12-22T08:44:25.845Z,74.61
2022-12-22T08:46:54.629Z,75.09
2022-12-22T08:49:22.281Z,74.46
2022-12-22T08:51:49.897Z,74.43
2022-12-22T08:54:17.152Z,74.48
2022-12-22T08:56:44.469Z,73.75
2022-12-22T08:59:12.834Z,73.23
2022-12-22T09:01:44.368Z,72.99
2022-12-22T09:04:19.097Z,72.64
2022-12-22T09:06:47.276Z,72.23
2022-12-22T09:09:17.850Z,72.78
2022-12-22T09:11:45.639Z,72.70
2022-12-22T09:14:13.262Z,72.24
2022-12-22T09:16:40.675Z,72.21
2022-12-22T09:19:09.008Z,72.36
2022-12-22T09:21:37.053Z,71.88
2022-12-22T09:24:10.371Z,71.88
2022-12-22T09:26:37.636Z,70.86
2022-12-22T09:29:05.112Z,70.95
2022-12-22T09:31:32.886Z,71.20
2022-12-22T09:34:00.533Z,70.58
2022-12-22T09:36:30.803Z,70.16
2022-12-22T09:38:58.165Z,70.66
2022-12-22T09:41:36.299Z,70.32
2022-12-22T09:44:25.105Z,69.67
2022-12-22T09:46:54.650Z,69.16
2022-12-22T09:49:23.030Z,69.25
2022-12-22T09:51:59.929Z,69.18
2022-12-22T09:54:27.868Z,68.83
2022-12-22T09:56:54.733Z,67.98
2022-12-22T09:59:23.332Z,67.35
2022-12-22T10:02:33.586Z,67.01
2022-12-22T10:05:20.980Z,66.32
2022-12-22T10:07:48.070Z,66.06
2022-12-22T10:10:25.148Z,66.33
2022-12-22T10:12:55.532Z,65.97
2022-12-22T10:15:22.987Z,65.33
2022-12-22T10:17:51.825Z,64.56
2022-12-22T10:20:22.213Z,64.34
2022-12-22T10:22:53.047Z,64.42
2022-12-22T10:28:45.005Z,63.95
2022-12-22T10:31:28.299Z,64.19
2022-12-22T10:34:15.198Z,63.70
2022-12-22T10:36:48.310Z,63.64
2022-12-22T10:39:28.475Z,63.79
2022-12-22T10:42:02.123Z,63.20
2022-12-22T10:44:34.741Z,63.17
2022-12-22T10:47:24.160Z,63.61
2022-12-22T10:52:30.961Z,62.52
2022-12-22T10:55:40.952Z,61.96
2022-12-22T10:58:11.002Z,61.44
2022-12-22T11:00:38.884Z,61.18
2022-12-22T11:03:11.940Z,61.09
2022-12-22T11:05:39.443Z,61.03
2022-12-22T11:08:20.522Z,60.91
2022-12-22T11:11:10.860Z,60.48
2022-12-22T11:14:11.111Z,60.54
2022-12-22T11:17:00.645Z,60.70
2022-12-22T11:19:58.350Z,60.34
2022-12-22T11:22:49.273Z,60.38
2022-12-22T11:25:50.220Z,60.10
2022-12-22T11:28:57.245Z,59.75
2022-12-22T11:31:49.117Z,59.50
2022-12-22T11:34:46.206Z,59.21
2022-12-22T11:37:47.211Z,59.40
2022-12-22T11:40:35.973Z,59.20
2022-12-22T11:43:35.662Z,58.33
2022-12-22T11:46:11.711Z,58.20
2022-12-22T11:49:00.760Z,58.47
2022-12-22T11:52:00.351Z,57.84
2022-12-22T11:54:49.491Z,57.34
2022-12-22T11:57:28.469Z,56.99
2022-12-22T12:00:09.121Z,56.56
2022-12-22T12:03:15.194Z,56.33
2022-12-22T12:05:56.700Z,56.36
2022-12-22T12:09:11.079Z,56.49
2022-12-22T12:11:59.688Z,56.12
2022-12-22T12:14:32.872Z,55.97
2022-12-22T12:17:18.113Z,55.52
2022-12-22T12:20:02.482Z,55.06
2022-12-22T12:23:24.932Z,54.39
2022-12-22T12:25:54.897Z,54.15
2022-12-22T12:28:40.629Z,53.82
2022-12-22T12:31:12.612Z,53.91
2022-12-22T12:34:04.577Z,53.99
2022-12-22T12:37:10.449Z,53.55
2022-12-22T12:40:11.689Z,53.15
2022-12-22T12:43:02.127Z,53.05
2022-12-22T12:45:47.241Z,52.48
2022-12-22T12:48:34.684Z,52.22
2022-12-22T12:51:23.263Z,52.29
2022-12-22T12:54:33.715Z,51.90
2022-12-22T12:57:49.244Z,52.24
2022-12-22T13:00:34.772Z,52.02
2022-12-22T13:03:04.592Z,51.63
2022-12-22T13:05:40.202Z,51.90
2022-12-22T13:08:21.933Z,52.31
2022-12-22T13:12:01.787Z,52.14
2022-12-22T13:14:54.017Z,52.39
2022-12-22T13:17:50.412Z,52.67
2022-12-22T13:20:24.706Z,53.14
2022-12-22T13:22:58.174Z,53.19
2022-12-22T13:25:52.161Z,53.14
2022-12-22T13:28:30.907Z,53.50
2022-12-22T13:31:04.538Z,54.13
2022-12-22T13:33:37.105Z,53.91
2022-12-22T13:36:06.586Z,54.25
2022-12-22T13:38:37.350Z,54.68
2022-12-22T13:41:21.394Z,54.76
2022-12-22T13:44:00.573Z,54.85
2022-12-22T13:46:27.983Z,54.94
2022-12-22T13:48:56.952Z,55.26
2022-12-22T13:51:32.791Z,55.64
2022-12-22T13:54:11.153Z,55.62
2022-12-22T13:56:46.615Z,55.74
2022-12-22T13:59:30.425Z,56.05
2022-12-22T14:02:15.115Z,56.31
2022-12-22T14:05:11.004Z,56.77
2022-12-22T14:08:06.516Z,57.11
2022-12-22T14:10:38.612Z,57.22
2022-12-22T14:13:14.147Z,56.97
2022-12-22T14:16:15.410Z,57.37
2022-12-22T14:18:42.839Z,57.33
2022-12-22T14:24:28.646Z,57.57
2022-12-22T14:26:58.084Z,57.68
2022-12-22T14:29:29.159Z,58.01
2022-12-22T14:31:59.185Z,58.17
2022-12-22T14:34:32.058Z,58.51
2022-12-22T14:37:00.176Z,59.00
2022-12-22T14:39:32.419Z,59.10
2022-12-22T14:42:05.248Z,59.16
2022-12-22T14:44:36.273Z,59.47
2022-12-22T14:47:12.771Z,59.74
2022-12-22T14:50:19.605Z,60.05
2022-12-22T14:52:51.311Z,60.57
2022-12-22T14:55:28.547Z,60.79
2022-12-22T14:58:00.883Z,60.90
2022-12-22T15:00:33.203Z,61.26
2022-12-22T15:03:04.991Z,61.61
2022-12-22T15:05:36.241Z,61.54
2022-12-22T15:08:09.258Z,61.86
2022-12-22T15:10:44.443Z,61.86
2022-12-22T15:13:18.446Z,62.41
2022-12-22T15:15:45.604Z,62.83
2022-12-22T15:18:15.307Z,63.18
2022-12-22T15:20:42.265Z,63.37
2022-12-22T15:23:14.487Z,63.40
2022-12-22T15:25:41.590Z,63.88
2022-12-22T15:28:09.224Z,64.00
2022-12-22T15:30:36.774Z,64.79
2022-12-22T15:33:04.116Z,64.95
2022-12-22T15:35:33.635Z,65.34
2022-12-22T15:38:00.971Z,65.48
2022-12-22T15:40:28.815Z,65.96
2022-12-22T15:42:55.762Z,66.25
2022-12-22T15:45:23.318Z,66.58
2022-12-22T15:47:52.626Z,66.74
2022-12-22T15:50:23.968Z,67.03
2022-12-22T15:52:56.204Z,67.23
2022-12-22T15:55:24.743Z,67.60
2022-12-22T15:57:58.349Z,67.90
2022-12-22T16:00:26.188Z,67.72
2022-12-22T16:02:53.352Z,68.01
2022-12-22T16:05:20.590Z,68.21
2022-12-22T16:07:47.533Z,68.56
2022-12-22T16:10:27.014Z,68.75
2022-12-22T16:13:01.823Z,68.81
2022-12-22T16:15:32.251Z,69.43
2022-12-22T16:18:00.615Z,69.82
2022-12-22T16:20:37.275Z,71.13
2022-12-22T16:23:07.827Z,70.77
2022-12-22T16:25:38.957Z,70.52
2022-12-22T16:28:07.088Z,70.40
2022-12-22T16:30:34.590Z,70.88
2022-12-22T16:33:01.472Z,70.98
2022-12-22T16:35:30.344Z,71.03
2022-12-22T16:37:59.043Z,71.21
2022-12-22T16:40:28.235Z,71.21
2022-12-22T16:45:45.780Z,71.59
2022-12-22T16:48:16.407Z,71.89
2022-12-22T16:50:46.787Z,72.04
2022-12-22T16:53:17.234Z,72.40
2022-12-22T16:55:44.141Z,72.15
2022-12-22T16:58:14.177Z,72.88
2022-12-22T17:00:44.663Z,72.96
2022-12-22T17:03:19.858Z,72.77
2022-12-22T17:05:51.805Z,72.71
2022-12-22T17:08:34.458Z,72.88
2022-12-22T17:11:10.460Z,73.16
2022-12-22T17:13:38.953Z,73.17
2022-12-22T17:16:06.072Z,73.30
2022-12-22T17:18:34.371Z,73.31
2022-12-22T17:21:01.476Z,73.67
2022-12-22T17:24:04.472Z,73.33
2022-12-22T17:26:33.853Z,73.64
2022-12-22T17:29:01.359Z,73.51
2022-12-22T17:31:28.725Z,73.77
2022-12-22T17:33:56.835Z,73.87
2022-12-22T17:36:36.180Z,73.97
2022-12-22T17:39:04.050Z,73.93
2022-12-22T17:41:31.524Z,74.05
2022-12-22T17:43:58.537Z,74.21
2022-12-22T17:46:25.663Z,74.18
2022-12-22T17:48:52.914Z,74.52
2022-12-22T17:51:29.502Z,74.33
2022-12-22T17:54:00.041Z,74.41
2022-12-22T17:56:29.342Z,74.81
2022-12-22T17:58:56.402Z,74.80
2022-12-22T18:01:29.549Z,74.80
2022-12-22T18:03:57.148Z,75.02
2022-12-22T18:06:29.713Z,74.88
2022-12-22T18:08:57.555Z,75.06
2022-12-22T18:11:24.615Z,75.07
2022-12-22T18:13:53.098Z,75.11
2022-12-22T18:16:21.549Z,75.25
2022-12-22T18:18:48.882Z,75.31
2022-12-22T18:21:24.788Z,75.27
2022-12-22T18:23:52.483Z,75.24
2022-12-22T18:26:23.542Z,75.41
2022-12-22T18:28:51.577Z,75.78
2022-12-22T18:31:19.556Z,75.75
2022-12-22T18:33:46.578Z,75.90
2022-12-22T18:36:19.734Z,75.82
2022-12-22T18:38:48.059Z,76.07
2022-12-22T18:41:20.643Z,76.30
2022-12-22T18:43:47.647Z,76.55
2022-12-22T18:46:14.755Z,76.60
2022-12-22T18:48:42.165Z,76.53
2022-12-22T18:51:24.365Z,76.29
2022-12-22T18:53:53.377Z,76.53
2022-12-22T18:56:22.542Z,76.57
2022-12-22T18:58:50.653Z,76.65
2022-12-22T19:01:23.593Z,76.67
2022-12-22T19:03:54.783Z,76.77
2022-12-22T19:06:22.930Z,76.47
2022-12-22T19:08:50.505Z,76.60
2022-12-22T19:11:21.445Z,76.32
2022-12-22T19:13:51.143Z,76.37
2022-12-22T19:16:23.105Z,76.43
2022-12-22T19:18:50.439Z,76.37
2022-12-22T19:21:18.837Z,76.49
2022-12-22T19:23:46.104Z,76.71
2022-12-22T19:26:22.852Z,76.91
2022-12-22T19:28:56.935Z,76.88
2022-12-22T19:31:30.414Z,76.97
2022-12-22T19:34:04.398Z,76.96
2022-12-22T19:36:33.357Z,76.95
2022-12-22T19:39:04.724Z,77.07
2022-12-22T19:41:47.795Z,77.24
2022-12-22T19:44:30.429Z,77.62
2022-12-22T19:46:59.812Z,77.50
2022-12-22T19:49:28.057Z,77.50
2022-12-22T19:51:56.277Z,77.78
2022-12-22T19:54:23.164Z,78.00
2022-12-22T19:56:53.538Z,78.06
2022-12-22T19:59:41.301Z,78.07
2022-12-22T20:02:21.438Z,78.15
2022-12-22T20:04:49.582Z,78.62
2022-12-22T20:07:18.951Z,78.70
2022-12-22T20:09:45.956Z,79.03
2022-12-22T20:12:27.975Z,79.01
2022-12-22T20:14:57.182Z,78.84
2022-12-22T20:17:24.230Z,78.81
2022-12-22T20:19:51.677Z,78.80
2022-12-22T20:22:21.347Z,78.78
2022-12-22T20:24:50.207Z,78.78
2022-12-22T20:27:34.682Z,78.85
2022-12-22T20:30:01.964Z,78.89
2022-12-22T20:32:29.926Z,79.39
2022-12-22T20:35:00.352Z,79.22
2022-12-22T20:37:29.188Z,79.30
2022-12-22T20:39:56.287Z,79.79
2022-12-22T20:42:24.779Z,80.01
2022-12-22T20:45:03.822Z,79.95
2022-12-22T20:47:33.618Z,79.97
2022-12-22T20:50:00.652Z,79.81
2022-12-22T20:52:27.780Z,79.74
2022-12-22T20:54:54.743Z,79.86
2022-12-22T20:57:23.543Z,79.53
2022-12-22T20:59:56.107Z,79.49
2022-12-22T21:02:28.283Z,79.84
2022-12-22T21:04:55.980Z,80.07
2022-12-22T21:07:22.877Z,80.09
2022-12-22T21:09:49.881Z,79.94
2022-12-22T21:12:17.284Z,79.86
2022-12-22T21:14:44.876Z,79.73
2022-12-22T21:17:19.162Z,79.75
2022-12-22T21:19:46.722Z,79.77
2022-12-22T21:22:13.947Z,79.94
2022-12-22T21:24:41.943Z,79.87
2022-12-22T21:27:18.329Z,80.06
2022-12-22T21:29:45.909Z,80.04
2022-12-22T21:32:16.540Z,80.70
2022-12-22T21:34:43.594Z,80.40
2022-12-22T21:37:17.516Z,80.27
2022-12-22T21:39:44.976Z,80.17
2022-12-22T21:42:16.468Z,80.14
2022-12-22T21:44:44.723Z,80.15
2022-12-22T21:47:17.670Z,80.15
2022-12-22T21:49:44.652Z,80.19
2022-12-22T21:52:11.950Z,80.02
2022-12-22T21:54:39.303Z,80.01
2022-12-22T21:57:06.211Z,80.06
2022-12-22T21:59:33.257Z,79.97
2022-12-22T22:02:00.309Z,79.88
2022-12-22T22:04:27.372Z,79.92
2022-12-22T22:06:54.414Z,79.77
2022-12-22T22:09:21.354Z,79.89
2022-12-22T22:12:06.870Z,79.80
2022-12-22T22:14:33.719Z,79.76
2022-12-22T22:17:00.621Z,80.02
2022-12-22T22:19:27.766Z,80.08
2022-12-22T22:21:54.936Z,80.12
2022-12-22T22:24:24.079Z,80.00
2022-12-22T22:26:51.770Z,79.95
2022-12-22T22:29:18.863Z,80.18
2022-12-22T22:31:46.044Z,80.32
2022-12-22T22:34:13.077Z,80.19
2022-12-22T22:36:40.056Z,80.25
2022-12-22T22:39:07.211Z,80.27
2022-12-22T22:41:39.280Z,80.18
2022-12-22T22:44:09.838Z,80.20
2022-12-22T22:46:36.959Z,80.15
2022-12-22T22:49:04.163Z,80.13
2022-12-22T22:51:34.303Z,80.13
2022-12-22T22:54:01.232Z,80.13
2022-12-22T22:56:28.159Z,80.10
2022-12-22T22:58:55.336Z,80.11
2022-12-22T23:01:22.471Z,80.23
2022-12-22T23:03:49.636Z,80.09
2022-12-22T23:06:16.774Z,80.09
2022-12-22T23:08:43.623Z,80.12
2022-12-22T23:11:15.449Z,80.03
2022-12-22T23:13:43.341Z,79.92
2022-12-22T23:16:10.384Z,79.94
2022-12-22T23:18:37.552Z,79.86
2022-12-22T23:21:06.741Z,79.82
2022-12-22T23:23:34.554Z,79.76
2022-12-22T23:26:01.678Z,79.71
2022-12-22T23:28:29.407Z,79.89
2022-12-22T23:30:56.421Z,79.88
2022-12-22T23:33:23.415Z,79.79
2022-12-22T23:35:51.071Z,80.05
2022-12-22T23:38:21.006Z,79.72
2022-12-22T23:40:52.811Z,79.99
2022-12-22T23:43:20.780Z,79.81
2022-12-22T23:45:47.838Z,79.82
2022-12-22T23:48:15.130Z,79.92
2022-12-22T23:50:45.450Z,79.99
2022-12-22T23:53:12.415Z,79.94
2022-12-22T23:55:44.914Z,80.13
2022-12-22T23:58:12.340Z,80.23
